createdAt,value
2023-05-06T00:00:07.425Z,11.41
2023-05-06T00:02:39.690Z,11.31
2023-05-06T00:05:09.097Z,11.27
2023-05-06T00:07:37.576Z,11.21
2023-05-06T00:10:06.595Z,11.21
2023-05-06T00:12:35.506Z,11.03
2023-05-06T00:15:04.321Z,11.03
2023-05-06T00:17:32.468Z,11.04
2023-05-06T00:20:01.250Z,11.06
2023-05-06T00:22:29.578Z,11.13
2023-05-06T00:24:57.688Z,11.14
2023-05-06T00:27:26.879Z,11.12
2023-05-06T00:29:56.886Z,11.28
2023-05-06T00:32:25.568Z,11.34
2023-05-06T00:34:54.181Z,11.02
2023-05-06T00:37:22.204Z,10.90
2023-05-06T00:39:50.674Z,11.03
2023-05-06T00:42:19.514Z,11.11
2023-05-06T00:44:47.722Z,11.12
2023-05-06T00:47:17.697Z,11.10
2023-05-06T00:49:50.414Z,11.07
2023-05-06T00:52:20.183Z,11.09
2023-05-06T00:54:48.762Z,11.10
2023-05-06T00:57:17.045Z,11.11
2023-05-06T00:59:45.706Z,11.15
2023-05-06T01:02:13.744Z,11.18
2023-05-06T01:04:42.509Z,11.16
2023-05-06T01:07:39.864Z,11.04
2023-05-06T01:10:19.198Z,11.08
2023-05-06T01:12:47.590Z,11.16
2023-05-06T01:15:22.113Z,11.09
2023-05-06T01:17:53.541Z,11.00
2023-05-06T01:20:21.928Z,10.94
2023-05-06T01:22:51.134Z,11.01
2023-05-06T01:25:20.558Z,11.03
2023-05-06T01:27:50.464Z,11.09
2023-05-06T01:30:20.464Z,10.96
2023-05-06T01:33:27.042Z,10.81
2023-05-06T01:36:10.491Z,10.67
2023-05-06T01:38:48.208Z,10.57
2023-05-06T01:41:18.106Z,10.61
2023-05-06T01:43:47.933Z,10.66
2023-05-06T01:46:20.830Z,10.70
2023-05-06T01:48:53.786Z,10.72
2023-05-06T01:51:24.385Z,10.50
2023-05-06T01:53:52.789Z,10.53
2023-05-06T01:56:20.875Z,10.54
2023-05-06T01:58:49.627Z,10.62
2023-05-06T02:01:18.384Z,10.55
2023-05-06T02:03:47.929Z,10.47
2023-05-06T02:06:16.477Z,10.56
2023-05-06T02:08:45.318Z,10.51
2023-05-06T02:11:14.425Z,10.50
2023-05-06T02:13:43.771Z,10.44
2023-05-06T02:16:12.314Z,10.47
2023-05-06T02:18:41.477Z,10.52
2023-05-06T02:21:11.056Z,10.49
2023-05-06T02:23:39.980Z,10.44
2023-05-06T02:26:08.392Z,10.50
2023-05-06T02:28:36.691Z,10.38
2023-05-06T02:31:05.940Z,10.30
2023-05-06T02:33:34.233Z,10.29
2023-05-06T02:36:02.479Z,10.16
2023-05-06T02:38:31.215Z,10.24
2023-05-06T02:41:01.186Z,10.32
2023-05-06T02:43:29.763Z,10.36
2023-05-06T02:45:59.217Z,10.47
2023-05-06T02:48:27.403Z,10.51
2023-05-06T02:50:55.644Z,10.54
2023-05-06T02:53:24.149Z,10.59
2023-05-06T02:55:52.250Z,10.53
2023-05-06T02:58:20.750Z,10.34
2023-05-06T03:00:49.249Z,10.34
2023-05-06T03:03:17.989Z,10.40
2023-05-06T03:05:46.551Z,10.44
2023-05-06T03:08:14.928Z,10.28
2023-05-06T03:10:43.333Z,10.26
2023-05-06T03:13:11.880Z,10.14
2023-05-06T03:15:41.459Z,10.21
2023-05-06T03:18:10.017Z,10.12
2023-05-06T03:20:39.425Z,10.01
2023-05-06T03:23:08.704Z,10.04
2023-05-06T03:25:37.466Z,10.06
2023-05-06T03:28:06.119Z,10.12
2023-05-06T03:30:35.104Z,10.17
2023-05-06T03:33:04.865Z,10.25
2023-05-06T03:35:33.964Z,10.26
2023-05-06T03:38:03.294Z,10.23
2023-05-06T03:40:33.470Z,10.25
2023-05-06T03:43:02.108Z,10.29
2023-05-06T03:45:30.711Z,10.34
2023-05-06T03:48:00.090Z,10.39
2023-05-06T03:50:28.920Z,10.35
2023-05-06T03:52:57.647Z,10.32
2023-05-06T03:55:26.229Z,10.43
2023-05-06T03:57:54.814Z,10.36
2023-05-06T04:00:23.355Z,10.36
2023-05-06T04:02:52.053Z,10.27
2023-05-06T04:05:21.125Z,10.37
2023-05-06T04:07:49.505Z,10.40
2023-05-06T04:10:18.494Z,10.40
2023-05-06T04:12:47.797Z,10.49
2023-05-06T04:15:16.960Z,10.58
2023-05-06T04:17:45.610Z,10.74
2023-05-06T04:20:14.570Z,10.85
2023-05-06T04:22:42.755Z,10.88
2023-05-06T04:25:12.373Z,10.93
2023-05-06T04:27:41.813Z,11.10
2023-05-06T04:30:10.470Z,11.28
2023-05-06T04:32:39.290Z,11.38
2023-05-06T04:35:08.478Z,11.15
2023-05-06T04:37:38.033Z,10.99
2023-05-06T04:40:09.472Z,10.90
2023-05-06T04:42:39.548Z,10.80
2023-05-06T04:45:09.709Z,10.94
2023-05-06T04:47:38.329Z,11.12
2023-05-06T04:50:07.348Z,11.18
2023-05-06T04:52:37.505Z,11.34
2023-05-06T04:55:07.031Z,11.45
2023-05-06T04:57:36.157Z,11.50
2023-05-06T05:00:06.088Z,11.54
2023-05-06T05:02:34.846Z,11.63
2023-05-06T05:05:03.723Z,11.69
2023-05-06T05:07:31.909Z,11.72
2023-05-06T05:10:00.391Z,11.76
2023-05-06T05:12:28.987Z,11.77
2023-05-06T05:14:57.737Z,11.73
2023-05-06T05:17:26.112Z,11.90
2023-05-06T05:19:54.954Z,11.95
2023-05-06T05:22:23.284Z,12.00
2023-05-06T05:24:51.691Z,12.10
2023-05-06T05:27:20.565Z,12.21
2023-05-06T05:29:48.986Z,12.34
2023-05-06T05:32:17.478Z,12.42
2023-05-06T05:34:46.783Z,12.53
2023-05-06T05:37:15.313Z,12.64
2023-05-06T05:39:43.437Z,12.68
2023-05-06T05:42:12.519Z,12.76
2023-05-06T05:44:41.791Z,12.71
2023-05-06T05:47:10.360Z,12.84
2023-05-06T05:49:39.126Z,12.79
2023-05-06T05:52:07.999Z,12.68
2023-05-06T05:54:36.884Z,13.03
2023-05-06T05:57:05.824Z,13.16
2023-05-06T05:59:34.283Z,13.41
2023-05-06T06:02:03.627Z,13.52
2023-05-06T06:04:32.490Z,13.74
2023-05-06T06:07:02.095Z,13.87
2023-05-06T06:09:31.357Z,14.04
2023-05-06T06:12:00.628Z,14.21
2023-05-06T06:14:29.548Z,14.40
2023-05-06T06:16:57.992Z,14.55
2023-05-06T06:19:26.642Z,14.67
2023-05-06T06:21:54.894Z,14.75
2023-05-06T06:24:24.663Z,14.90
2023-05-06T06:26:53.152Z,14.91
2023-05-06T06:29:21.535Z,15.01
2023-05-06T06:31:50.166Z,15.11
2023-05-06T06:34:18.984Z,15.11
2023-05-06T06:36:47.706Z,15.40
2023-05-06T06:39:15.989Z,15.53
2023-05-06T06:41:44.493Z,15.56
2023-05-06T06:44:12.742Z,15.65
2023-05-06T06:46:41.749Z,15.70
2023-05-06T06:49:10.231Z,15.73
2023-05-06T06:51:38.592Z,15.74
2023-05-06T06:54:06.985Z,15.72
2023-05-06T06:56:35.640Z,15.90
2023-05-06T06:59:04.221Z,15.95
2023-05-06T07:01:32.772Z,16.02
2023-05-06T07:04:01.867Z,16.18
2023-05-06T07:06:30.188Z,16.25
2023-05-06T07:08:58.429Z,16.49
2023-05-06T07:11:26.879Z,16.62
2023-05-06T07:13:55.346Z,16.48
2023-05-06T07:16:23.944Z,16.86
2023-05-06T07:18:53.863Z,17.41
2023-05-06T07:21:22.258Z,17.65
2023-05-06T07:23:50.530Z,17.75
2023-05-06T07:26:19.060Z,17.86
2023-05-06T07:28:47.557Z,18.17
2023-05-06T07:31:16.508Z,18.33
2023-05-06T07:33:45.348Z,18.50
2023-05-06T07:36:13.624Z,18.43
2023-05-06T07:38:42.075Z,18.70
2023-05-06T07:41:10.742Z,18.75
2023-05-06T07:43:39.081Z,19.03
2023-05-06T07:46:08.131Z,19.13
2023-05-06T07:48:36.637Z,19.56
2023-05-06T07:51:05.066Z,19.69
2023-05-06T07:53:33.860Z,19.91
2023-05-06T07:56:03.603Z,19.95
2023-05-06T07:58:32.085Z,20.12
2023-05-06T08:01:00.586Z,19.71
2023-05-06T08:03:30.432Z,19.82
2023-05-06T08:05:59.572Z,20.39
2023-05-06T08:08:28.205Z,20.80
2023-05-06T08:10:58.905Z,21.07
2023-05-06T08:13:28.187Z,20.59
2023-05-06T08:15:57.601Z,20.91
2023-05-06T08:18:25.797Z,21.15
2023-05-06T08:20:54.138Z,21.62
2023-05-06T08:23:22.814Z,21.13
2023-05-06T08:25:50.977Z,21.97
2023-05-06T08:28:20.073Z,22.34
2023-05-06T08:30:51.288Z,22.46
2023-05-06T08:33:19.799Z,22.52
2023-05-06T08:35:49.544Z,22.34
2023-05-06T08:38:18.050Z,22.74
2023-05-06T08:40:48.616Z,22.78
2023-05-06T08:43:21.202Z,22.79
2023-05-06T08:45:49.812Z,22.74
2023-05-06T08:48:18.720Z,22.63
2023-05-06T08:50:49.178Z,22.76
2023-05-06T08:53:17.633Z,22.66
2023-05-06T08:55:47.047Z,22.42
2023-05-06T08:58:17.354Z,22.81
2023-05-06T09:00:46.892Z,22.85
2023-05-06T09:03:15.065Z,22.97
2023-05-06T09:05:43.403Z,23.20
2023-05-06T09:08:11.922Z,23.47
2023-05-06T09:10:47.496Z,23.78
2023-05-06T09:13:18.697Z,23.93
2023-05-06T09:15:48.978Z,24.18
2023-05-06T09:18:17.655Z,24.33
2023-05-06T09:20:48.271Z,23.91
2023-05-06T09:23:18.220Z,23.92
2023-05-06T09:25:47.677Z,24.24
2023-05-06T09:28:16.358Z,23.78
2023-05-06T09:30:47.753Z,24.42
2023-05-06T09:33:16.887Z,24.42
2023-05-06T09:35:45.757Z,24.88
2023-05-06T09:38:14.185Z,24.81
2023-05-06T09:40:42.711Z,24.29
2023-05-06T09:43:12.456Z,24.66
2023-05-06T09:45:41.457Z,24.64
2023-05-06T09:48:10.443Z,25.16
2023-05-06T09:50:39.412Z,25.39
2023-05-06T09:53:09.097Z,25.66
2023-05-06T09:55:38.394Z,25.40
2023-05-06T09:58:08.167Z,25.15
2023-05-06T10:00:36.821Z,24.51
2023-05-06T10:03:06.004Z,23.56
2023-05-06T10:05:36.432Z,23.44
2023-05-06T10:08:07.878Z,23.15
2023-05-06T10:10:37.949Z,22.90
2023-05-06T10:13:06.450Z,22.75
2023-05-06T10:15:35.595Z,22.98
2023-05-06T10:18:05.347Z,23.08
2023-05-06T10:20:36.199Z,22.83
2023-05-06T10:23:09.275Z,22.80
2023-05-06T10:25:41.388Z,22.58
2023-05-06T10:28:17.232Z,22.54
2023-05-06T10:30:59.681Z,22.47
2023-05-06T10:33:28.758Z,22.45
2023-05-06T10:36:07.205Z,22.54
2023-05-06T10:38:40.440Z,22.71
2023-05-06T10:41:09.696Z,23.41
2023-05-06T10:43:45.202Z,23.37
2023-05-06T10:46:15.627Z,23.39
2023-05-06T10:49:11.468Z,23.46
2023-05-06T10:51:41.958Z,23.19
2023-05-06T10:54:18.507Z,23.21
2023-05-06T10:56:49.830Z,22.85
2023-05-06T10:59:26.778Z,22.83
2023-05-06T11:01:57.347Z,22.78
2023-05-06T11:04:26.268Z,22.68
2023-05-06T11:06:54.508Z,22.81
2023-05-06T11:09:27.763Z,22.93
2023-05-06T11:12:04.495Z,22.97
2023-05-06T11:14:37.184Z,22.93
2023-05-06T11:17:28.792Z,22.93
2023-05-06T11:20:23.040Z,23.02
2023-05-06T11:22:52.292Z,23.10
2023-05-06T11:25:49.422Z,22.78
2023-05-06T11:28:18.065Z,22.37
2023-05-06T11:30:54.815Z,22.27
2023-05-06T11:33:27.771Z,22.14
2023-05-06T11:35:56.303Z,22.13
2023-05-06T11:38:26.608Z,21.98
2023-05-06T11:40:55.537Z,21.79
2023-05-06T11:43:23.746Z,21.83
2023-05-06T11:45:52.335Z,21.73
2023-05-06T11:48:20.822Z,21.76
2023-05-06T11:50:49.884Z,21.62
2023-05-06T11:53:21.293Z,21.52
2023-05-06T11:55:52.117Z,21.48
2023-05-06T11:58:25.605Z,21.36
2023-05-06T12:00:55.993Z,21.25
2023-05-06T12:03:26.989Z,21.17
2023-05-06T12:05:55.787Z,21.13
2023-05-06T12:08:27.794Z,21.01
2023-05-06T12:11:01.876Z,21.02
2023-05-06T12:13:30.659Z,21.09
2023-05-06T12:16:00.264Z,21.09
2023-05-06T12:18:29.287Z,21.16
2023-05-06T12:21:02.432Z,21.16
2023-05-06T12:23:31.361Z,21.16
2023-05-06T12:26:09.168Z,21.12
2023-05-06T12:28:38.031Z,21.14
2023-05-06T12:31:18.930Z,21.18
2023-05-06T12:33:51.497Z,21.41
2023-05-06T12:36:19.859Z,21.34
2023-05-06T12:38:59.340Z,21.31
2023-05-06T12:41:42.339Z,21.31
2023-05-06T12:44:31.458Z,21.35
2023-05-06T12:47:03.754Z,21.37
2023-05-06T12:49:58.122Z,21.32
2023-05-06T12:52:29.783Z,21.18
2023-05-06T12:55:01.756Z,21.15
2023-05-06T12:57:30.189Z,21.15
2023-05-06T12:59:58.872Z,20.99
2023-05-06T13:02:27.079Z,20.96
2023-05-06T13:04:56.965Z,21.03
2023-05-06T13:07:25.457Z,20.87
2023-05-06T13:09:53.885Z,20.83
2023-05-06T13:12:21.920Z,20.79
2023-05-06T13:14:50.497Z,20.46
2023-05-06T13:17:18.819Z,20.32
2023-05-06T13:19:47.654Z,20.26
2023-05-06T13:22:16.708Z,20.16
2023-05-06T13:24:44.975Z,20.04
2023-05-06T13:27:13.085Z,20.03
2023-05-06T13:29:41.803Z,19.88
2023-05-06T13:32:10.290Z,19.57
2023-05-06T13:34:38.683Z,19.58
2023-05-06T13:37:07.816Z,19.30
2023-05-06T13:39:36.392Z,19.16
2023-05-06T13:42:06.711Z,18.89
2023-05-06T13:44:36.826Z,18.78
2023-05-06T13:47:05.455Z,18.60
2023-05-06T13:49:33.628Z,18.63
2023-05-06T13:52:03.689Z,18.60
2023-05-06T13:54:32.543Z,18.56
2023-05-06T13:57:01.478Z,18.64
2023-05-06T13:59:29.989Z,18.56
2023-05-06T14:01:58.989Z,18.47
2023-05-06T14:04:27.728Z,17.87
2023-05-06T14:06:57.695Z,17.50
2023-05-06T14:09:25.938Z,17.54
2023-05-06T14:11:54.290Z,17.37
2023-05-06T14:14:22.423Z,17.29
2023-05-06T14:16:53.543Z,17.09
2023-05-06T14:19:22.313Z,16.89
2023-05-06T14:21:51.811Z,16.80
2023-05-06T14:24:20.112Z,16.53
2023-05-06T14:26:48.640Z,16.55
2023-05-06T14:29:17.319Z,16.56
2023-05-06T14:31:46.525Z,16.32
2023-05-06T14:34:15.186Z,16.38
2023-05-06T14:36:43.839Z,16.29
2023-05-06T14:39:13.330Z,16.25
2023-05-06T14:41:41.748Z,16.19
2023-05-06T14:44:10.332Z,16.22
2023-05-06T14:46:38.597Z,16.24
2023-05-06T14:49:07.207Z,16.34
2023-05-06T14:51:35.394Z,16.29
2023-05-06T14:54:04.567Z,16.43
2023-05-06T14:56:33.143Z,16.35
2023-05-06T14:59:03.726Z,16.47
2023-05-06T15:01:33.983Z,16.56
2023-05-06T15:04:02.137Z,16.64
2023-05-06T15:06:30.257Z,16.75
2023-05-06T15:08:58.817Z,16.83
2023-05-06T15:11:27.684Z,16.81
2023-05-06T15:13:56.012Z,16.84
2023-05-06T15:16:24.565Z,16.86
2023-05-06T15:18:52.935Z,16.91
2023-05-06T15:21:21.092Z,16.99
2023-05-06T15:23:50.060Z,17.10
2023-05-06T15:26:18.382Z,17.39
2023-05-06T15:28:46.531Z,17.67
2023-05-06T15:31:15.172Z,17.86
2023-05-06T15:33:44.198Z,18.05
2023-05-06T15:36:12.387Z,18.20
2023-05-06T15:38:53.029Z,18.34
2023-05-06T15:41:23.391Z,18.41
2023-05-06T15:43:52.417Z,18.43
2023-05-06T15:46:20.980Z,18.53
2023-05-06T15:48:52.032Z,18.59
2023-05-06T15:51:31.835Z,18.63
2023-05-06T15:54:00.282Z,18.68
2023-05-06T15:56:28.431Z,18.72
2023-05-06T15:58:56.950Z,18.72
2023-05-06T16:01:44.970Z,18.70
2023-05-06T16:04:14.248Z,18.56
2023-05-06T16:06:42.521Z,18.54
2023-05-06T16:09:10.732Z,18.44
2023-05-06T16:11:39.464Z,18.45
2023-05-06T16:14:07.541Z,18.37
2023-05-06T16:16:35.763Z,18.34
2023-05-06T16:19:04.935Z,18.29
2023-05-06T16:21:33.134Z,18.28
2023-05-06T16:24:02.540Z,18.23
2023-05-06T16:26:31.762Z,18.20
2023-05-06T16:29:01.628Z,18.17
2023-05-06T16:31:30.800Z,18.10
2023-05-06T16:33:59.913Z,18.02
2023-05-06T16:36:28.656Z,18.01
2023-05-06T16:38:56.964Z,17.99
2023-05-06T16:41:26.049Z,17.96
2023-05-06T16:43:54.339Z,17.90
2023-05-06T16:46:24.521Z,17.85
2023-05-06T16:48:54.036Z,17.81
2023-05-06T16:51:22.217Z,17.80
2023-05-06T16:53:50.465Z,17.76
2023-05-06T16:56:18.991Z,17.73
2023-05-06T16:58:47.109Z,17.72
2023-05-06T17:01:15.224Z,17.68
2023-05-06T17:03:43.761Z,17.65
2023-05-06T17:06:11.891Z,17.63
2023-05-06T17:08:40.141Z,17.57
2023-05-06T17:11:09.048Z,17.53
2023-05-06T17:13:37.222Z,17.49
2023-05-06T17:16:05.576Z,17.46
2023-05-06T17:18:34.549Z,17.31
2023-05-06T17:21:02.627Z,17.31
2023-05-06T17:23:30.779Z,17.34
2023-05-06T17:26:00.556Z,17.27
2023-05-06T17:28:28.669Z,17.29
2023-05-06T17:30:56.819Z,17.29
2023-05-06T17:33:25.433Z,17.26
2023-05-06T17:35:53.549Z,17.27
2023-05-06T17:38:21.734Z,17.20
2023-05-06T17:40:50.448Z,17.22
2023-05-06T17:43:19.086Z,17.20
2023-05-06T17:45:47.490Z,17.19
2023-05-06T17:48:16.318Z,17.15
2023-05-06T17:50:44.778Z,17.10
2023-05-06T17:53:13.043Z,17.04
2023-05-06T17:55:41.874Z,16.98
2023-05-06T17:58:09.922Z,16.98
2023-05-06T18:00:38.452Z,16.89
2023-05-06T18:03:07.364Z,16.86
2023-05-06T18:05:35.732Z,16.83
2023-05-06T18:08:04.832Z,16.77
2023-05-06T18:10:33.729Z,16.79
2023-05-06T18:13:01.976Z,16.79
2023-05-06T18:15:30.080Z,16.73
2023-05-06T18:17:58.805Z,16.76
2023-05-06T18:20:27.259Z,16.73
2023-05-06T18:22:56.279Z,16.60
2023-05-06T18:25:25.090Z,16.54
2023-05-06T18:27:53.163Z,16.49
2023-05-06T18:30:21.199Z,16.37
2023-05-06T18:32:51.774Z,16.32
2023-05-06T18:35:20.928Z,16.20
2023-05-06T18:37:49.390Z,16.25
2023-05-06T18:40:18.221Z,16.25
2023-05-06T18:42:47.505Z,16.19
2023-05-06T18:45:16.209Z,16.27
2023-05-06T18:47:44.464Z,16.21
2023-05-06T18:50:12.586Z,16.21
2023-05-06T18:52:41.352Z,16.23
2023-05-06T18:55:10.110Z,16.20
2023-05-06T18:57:38.440Z,16.08
2023-05-06T19:00:07.534Z,16.05
2023-05-06T19:02:38.035Z,15.93
2023-05-06T19:05:07.831Z,15.83
2023-05-06T19:07:36.291Z,15.86
2023-05-06T19:10:05.212Z,15.92
2023-05-06T19:12:34.805Z,15.95
2023-05-06T19:15:02.956Z,15.99
2023-05-06T19:17:31.785Z,15.91
2023-05-06T19:20:00.516Z,15.92
2023-05-06T19:22:29.821Z,15.98
2023-05-06T19:24:58.175Z,15.94
2023-05-06T19:27:26.717Z,15.96
2023-05-06T19:29:55.181Z,15.90
2023-05-06T19:32:23.590Z,15.78
2023-05-06T19:34:52.005Z,15.69
2023-05-06T19:37:20.260Z,15.72
2023-05-06T19:39:49.666Z,15.63
2023-05-06T19:42:18.221Z,15.60
2023-05-06T19:44:47.938Z,15.66
2023-05-06T19:47:16.561Z,15.70
2023-05-06T19:49:45.081Z,15.71
2023-05-06T19:52:13.329Z,15.68
2023-05-06T19:54:42.067Z,15.69
2023-05-06T19:57:10.704Z,15.65
2023-05-06T19:59:39.064Z,15.62
2023-05-06T20:02:10.517Z,15.63
2023-05-06T20:04:39.385Z,15.63
2023-05-06T20:07:07.813Z,15.48
2023-05-06T20:09:36.261Z,15.48
2023-05-06T20:12:05.808Z,15.48
2023-05-06T20:14:34.286Z,15.41
2023-05-06T20:17:02.850Z,15.42
2023-05-06T20:19:31.498Z,15.41
2023-05-06T20:22:00.358Z,15.34
2023-05-06T20:24:29.512Z,15.52
2023-05-06T20:26:59.046Z,15.56
2023-05-06T20:29:27.208Z,15.62
2023-05-06T20:31:55.658Z,15.69
2023-05-06T20:34:24.213Z,15.71
2023-05-06T20:36:56.264Z,15.74
2023-05-06T20:39:25.091Z,15.81
2023-05-06T20:41:53.262Z,15.86
2023-05-06T20:44:21.739Z,15.86
2023-05-06T20:46:50.045Z,15.87
2023-05-06T20:49:18.781Z,15.83
2023-05-06T20:51:47.341Z,15.65
2023-05-06T20:54:16.176Z,15.47
2023-05-06T20:56:44.328Z,15.36
2023-05-06T20:59:12.587Z,15.38
2023-05-06T21:01:41.394Z,15.46
2023-05-06T21:04:09.518Z,15.40
2023-05-06T21:06:37.767Z,15.40
2023-05-06T21:09:06.851Z,15.39
2023-05-06T21:11:34.919Z,15.37
2023-05-06T21:14:03.906Z,15.37
2023-05-06T21:16:32.688Z,15.34
2023-05-06T21:19:00.959Z,15.34
2023-05-06T21:21:31.332Z,15.35
2023-05-06T21:24:00.186Z,15.33
2023-05-06T21:26:29.773Z,15.17
2023-05-06T21:28:58.435Z,14.89
2023-05-06T21:31:27.472Z,14.74
2023-05-06T21:33:57.780Z,14.81
2023-05-06T21:36:26.292Z,14.65
2023-05-06T21:39:21.016Z,14.44
2023-05-06T21:41:49.703Z,14.45
2023-05-06T21:44:18.152Z,14.52
2023-05-06T21:46:46.267Z,14.49
2023-05-06T21:49:14.584Z,14.43
2023-05-06T21:51:49.585Z,14.44
2023-05-06T21:54:17.845Z,14.51
2023-05-06T21:56:46.386Z,14.44
2023-05-06T21:59:14.643Z,14.53
2023-05-06T22:01:43.095Z,14.55
2023-05-06T22:04:13.129Z,14.52
2023-05-06T22:06:42.106Z,14.44
2023-05-06T22:09:10.236Z,14.37
2023-05-06T22:11:38.841Z,14.46
2023-05-06T22:14:07.389Z,14.51
2023-05-06T22:16:37.775Z,14.57
2023-05-06T22:19:06.596Z,14.48
2023-05-06T22:21:35.365Z,14.46
2023-05-06T22:24:03.638Z,14.52
2023-05-06T22:26:33.106Z,14.43
2023-05-06T22:29:01.473Z,14.30
2023-05-06T22:31:30.008Z,14.27
2023-05-06T22:34:03.532Z,14.30
2023-05-06T22:36:33.983Z,14.39
2023-05-06T22:39:02.583Z,14.32
2023-05-06T22:41:31.039Z,14.43
2023-05-06T22:44:00.429Z,14.49
2023-05-06T22:46:29.235Z,14.56
2023-05-06T22:48:58.012Z,14.61
2023-05-06T22:51:26.816Z,14.64
2023-05-06T22:53:55.437Z,14.68
2023-05-06T22:56:23.755Z,14.70
2023-05-06T22:58:52.117Z,14.66
2023-05-06T23:01:20.857Z,14.71
2023-05-06T23:03:49.285Z,14.71
2023-05-06T23:06:18.413Z,14.73
2023-05-06T23:08:46.767Z,14.65
2023-05-06T23:11:14.915Z,14.58
2023-05-06T23:13:43.348Z,14.58
2023-05-06T23:16:11.920Z,14.67
2023-05-06T23:18:40.758Z,14.66
2023-05-06T23:21:10.076Z,14.61
2023-05-06T23:23:38.469Z,14.57
2023-05-06T23:26:06.691Z,14.49
2023-05-06T23:28:34.910Z,14.45
2023-05-06T23:31:03.356Z,14.38
2023-05-06T23:33:31.568Z,14.31
2023-05-06T23:36:00.927Z,14.24
2023-05-06T23:38:29.351Z,14.13
2023-05-06T23:40:57.568Z,14.12
2023-05-06T23:43:25.896Z,14.01
2023-05-06T23:45:57.840Z,14.00
2023-05-06T23:48:26.168Z,13.91
2023-05-06T23:50:55.072Z,13.87
2023-05-06T23:53:23.709Z,13.84
2023-05-06T23:55:52.330Z,13.87
2023-05-06T23:58:20.910Z,13.83
